Time;durP1;ratioP1;P1;durP2;ratioP2;P2;SDS_P1;SDS_P2;PMS_P1;PMS_P2;Temp;Humidity;BMP_temperature;BMP_pressure;BME280_temperature;BME280_humidity;BME280_pressure;Samples;Min_cycle;Max_cycle;Signal;HPM_P1;HPM_P2
2022/10/13 00:02:07;;;;;;;15.50;6.97;;;;;;;;;;6087676;23;20292;-76
2022/10/13 00:04:33;;;;;;;11.02;6.28;;;;;;;;;;6115818;23;20039;-76
2022/10/13 00:06:59;;;;;;;16.08;6.88;;;;;;;;;;6116086;23;20671;-75
2022/10/13 00:09:26;;;;;;;14.02;6.72;;;;;;;;;;6088049;23;20335;-74
2022/10/13 00:11:52;;;;;;;11.98;6.13;;;;;;;;;;6115486;23;20447;-74
2022/10/13 00:14:18;;;;;;;15.82;5.97;;;;;;;;;;6115593;23;20076;-77
2022/10/13 00:16:44;;;;;;;18.73;6.75;;;;;;;;;;6115839;23;20438;-73
2022/10/13 00:19:10;;;;;;;13.75;5.78;;;;;;;;;;6113955;23;20009;-73
2022/10/13 00:21:36;;;;;;;11.05;5.30;;;;;;;;;;6116223;23;20002;-74
2022/10/13 00:24:03;;;;;;;13.70;5.70;;;;;;;;;;6115616;23;20092;-73
2022/10/13 00:26:29;;;;;;;12.18;5.60;;;;;;;;;;6116110;23;20008;-73
2022/10/13 00:28:56;;;;;;;10.65;5.00;;;;;;;;;;6110612;23;20002;-72
2022/10/13 00:31:23;;;;;;;11.27;5.07;;;;;;;;;;6113246;23;20002;-73
2022/10/13 00:33:50;;;;;;;15.90;5.15;;;;;;;;;;6112617;23;20154;-73
2022/10/13 00:36:16;;;;;;;14.30;5.00;;;;;;;;;;6115538;23;20002;-72
2022/10/13 00:38:43;;;;;;;14.07;5.25;;;;;;;;;;6115331;23;20034;-72
2022/10/13 00:41:09;;;;;;;12.18;4.78;;;;;;;;;;6112775;23;20006;-72
2022/10/13 00:43:54;;;;;;;17.80;5.47;;;;;;;;;;6114659;23;20418;-73
2022/10/13 00:46:20;;;;;;;7.85;4.22;;;;;;;;;;6089974;23;20016;-73
2022/10/13 00:48:47;;;;;;;8.20;4.63;;;;;;;;;;6089759;23;20363;-72
2022/10/13 00:51:15;;;;;;;9.52;4.82;;;;;;;;;;6114747;23;20314;-73
2022/10/13 00:53:42;;;;;;;12.70;4.07;;;;;;;;;;6114226;23;20073;-73
2022/10/13 00:56:10;;;;;;;10.52;4.90;;;;;;;;;;6112895;23;20018;-72
2022/10/13 00:58:37;;;;;;;15.95;5.22;;;;;;;;;;6115552;23;20002;-73
2022/10/13 01:01:04;;;;;;;16.05;4.65;;;;;;;;;;6115328;23;20068;-73
2022/10/13 01:03:30;;;;;;;13.07;5.15;;;;;;;;;;6114882;23;20069;-74
2022/10/13 01:05:57;;;;;;;21.77;5.82;;;;;;;;;;6112745;23;20068;-73
2022/10/13 01:08:25;;;;;;;19.17;5.43;;;;;;;;;;6115382;23;20376;-74
2022/10/13 01:10:51;;;;;;;10.05;4.90;;;;;;;;;;6115170;23;20030;-72
2022/10/13 01:13:18;;;;;;;9.57;4.35;;;;;;;;;;6114809;23;20009;-72
2022/10/13 01:15:46;;;;;;;10.25;4.43;;;;;;;;;;6113966;23;20487;-73
2022/10/13 01:18:22;;;;;;;10.73;5.07;;;;;;;;;;6112576;23;20080;-72
2022/10/13 01:20:51;;;;;;;10.40;4.43;;;;;;;;;;6112092;23;20106;-73
2022/10/13 01:23:23;;;;;;;13.23;5.30;;;;;;;;;;6114538;23;20372;-72
2022/10/13 01:25:52;;;;;;;11.32;4.90;;;;;;;;;;6114785;23;20020;-72
2022/10/13 01:28:18;;;;;;;11.75;4.63;;;;;;;;;;6114471;23;20074;-74
2022/10/13 01:30:55;;;;;;;8.82;4.45;;;;;;;;;;6115129;23;20038;-73
2022/10/13 01:33:27;;;;;;;12.15;4.43;;;;;;;;;;6086309;23;20184;-72
2022/10/13 01:36:05;;;;;;;16.52;4.78;;;;;;;;;;6088653;23;20029;-73
2022/10/13 01:38:54;;;;;;;11.40;5.10;;;;;;;;;;6114852;23;20006;-73
2022/10/13 01:41:31;;;;;;;8.45;4.63;;;;;;;;;;6076956;23;20005;-72
2022/10/13 01:44:16;;;;;;;10.25;4.93;;;;;;;;;;6114312;23;20021;-73
2022/10/13 01:46:43;;;;;;;13.07;4.88;;;;;;;;;;6114042;23;20065;-73
2022/10/13 01:49:10;;;;;;;10.50;4.53;;;;;;;;;;6114578;23;20048;-74
2022/10/13 01:51:37;;;;;;;12.38;5.03;;;;;;;;;;6086204;23;20010;-72
2022/10/13 01:54:03;;;;;;;19.15;5.25;;;;;;;;;;6114482;23;20012;-72
2022/10/13 01:56:29;;;;;;;15.32;5.03;;;;;;;;;;6113945;23;20018;-73
2022/10/13 01:58:57;;;;;;;14.48;5.20;;;;;;;;;;6113935;23;20005;-73
2022/10/13 02:01:45;;;;;;;12.35;5.30;;;;;;;;;;6112179;23;20068;-73
2022/10/13 02:04:17;;;;;;;14.32;5.25;;;;;;;;;;6113146;23;20047;-73
2022/10/13 02:06:54;;;;;;;9.52;4.75;;;;;;;;;;6113636;23;19998;-75
2022/10/13 02:09:31;;;;;;;13.45;5.68;;;;;;;;;;6088022;23;20020;-74
2022/10/13 02:12:23;;;;;;;9.88;4.90;;;;;;;;;;6114359;23;20097;-73
2022/10/13 02:14:50;;;;;;;14.07;6.05;;;;;;;;;;6108474;23;20147;-72
2022/10/13 02:17:17;;;;;;;12.45;5.07;;;;;;;;;;6112278;23;20454;-72
2022/10/13 02:19:43;;;;;;;12.88;5.43;;;;;;;;;;6112148;23;20006;-72
2022/10/13 02:22:11;;;;;;;14.73;4.85;;;;;;;;;;6113405;23;20010;-73
2022/10/13 02:24:37;;;;;;;8.65;4.43;;;;;;;;;;6112102;23;20028;-73
2022/10/13 02:27:05;;;;;;;10.60;4.60;;;;;;;;;;6114294;23;20435;-72
2022/10/13 02:29:31;;;;;;;11.40;5.00;;;;;;;;;;6112974;23;20002;-72
2022/10/13 02:31:57;;;;;;;11.52;4.25;;;;;;;;;;6114199;23;20005;-72
2022/10/13 02:34:24;;;;;;;11.25;5.03;;;;;;;;;;6111931;23;20101;-73
2022/10/13 02:36:50;;;;;;;9.45;4.45;;;;;;;;;;6114306;23;20008;-72
2022/10/13 02:39:16;;;;;;;14.15;5.63;;;;;;;;;;6113963;23;20045;-72
2022/10/13 02:41:43;;;;;;;16.20;5.80;;;;;;;;;;6113546;23;20077;-72
2022/10/13 02:44:09;;;;;;;12.05;5.45;;;;;;;;;;6112131;23;20169;-74
2022/10/13 02:46:35;;;;;;;14.73;5.10;;;;;;;;;;6114434;23;20431;-73
2022/10/13 02:49:01;;;;;;;14.98;4.80;;;;;;;;;;6114076;23;20518;-73
2022/10/13 02:51:27;;;;;;;13.63;5.30;;;;;;;;;;6114564;23;20418;-72
2022/10/13 02:53:54;;;;;;;14.32;5.20;;;;;;;;;;6116663;23;20002;-73
2022/10/13 02:56:20;;;;;;;10.30;5.07;;;;;;;;;;6101321;23;20554;-73
2022/10/13 02:58:46;;;;;;;13.90;5.20;;;;;;;;;;6112021;23;20375;-73
2022/10/13 03:01:13;;;;;;;19.75;4.95;;;;;;;;;;6113523;23;20002;-72
2022/10/13 03:03:39;;;;;;;10.90;4.93;;;;;;;;;;6113138;23;20010;-72
2022/10/13 03:06:06;;;;;;;14.48;5.45;;;;;;;;;;6113395;23;20479;-72
2022/10/13 03:08:33;;;;;;;9.55;4.85;;;;;;;;;;6114048;23;20016;-75
2022/10/13 03:10:59;;;;;;;13.15;5.50;;;;;;;;;;6112282;23;20443;-73
2022/10/13 03:13:25;;;;;;;16.70;6.20;;;;;;;;;;6112895;23;20663;-72
2022/10/13 03:15:52;;;;;;;11.20;5.43;;;;;;;;;;6113848;23;20547;-72
2022/10/13 03:18:18;;;;;;;10.77;6.00;;;;;;;;;;6110909;23;20209;-72
2022/10/13 03:20:44;;;;;;;13.90;5.68;;;;;;;;;;6108816;23;20009;-73
2022/10/13 03:23:10;;;;;;;13.38;6.13;;;;;;;;;;6110475;23;20105;-74
2022/10/13 03:25:37;;;;;;;15.57;5.95;;;;;;;;;;6107997;23;20042;-74
2022/10/13 03:28:03;;;;;;;10.15;5.55;;;;;;;;;;6109266;23;20490;-73
2022/10/13 03:30:29;;;;;;;8.70;5.40;;;;;;;;;;6111005;23;20114;-72
2022/10/13 03:32:55;;;;;;;12.52;5.85;;;;;;;;;;6108203;23;20033;-76
2022/10/13 03:35:21;;;;;;;10.68;5.93;;;;;;;;;;6110899;23;20016;-73
2022/10/13 03:37:48;;;;;;;15.85;5.78;;;;;;;;;;6110584;23;20423;-74
2022/10/13 03:40:14;;;;;;;11.68;5.30;;;;;;;;;;6110339;23;20435;-74
2022/10/13 03:42:40;;;;;;;13.95;6.00;;;;;;;;;;6107695;23;20025;-75
2022/10/13 03:45:07;;;;;;;15.15;5.60;;;;;;;;;;6109826;23;20018;-73
2022/10/13 03:47:34;;;;;;;12.02;5.55;;;;;;;;;;6110665;23;20605;-74
2022/10/13 03:50:01;;;;;;;12.43;5.55;;;;;;;;;;6109178;23;20002;-74
2022/10/13 03:52:27;;;;;;;14.13;5.60;;;;;;;;;;6110166;23;20002;-74
2022/10/13 03:54:53;;;;;;;17.48;6.43;;;;;;;;;;6110019;23;20010;-75
2022/10/13 03:57:19;;;;;;;14.90;5.18;;;;;;;;;;6109556;23;20028;-75
2022/10/13 03:59:45;;;;;;;12.82;6.05;;;;;;;;;;6110196;23;20002;-76
2022/10/13 04:02:12;;;;;;;14.10;5.93;;;;;;;;;;6108802;23;20064;-73
2022/10/13 04:04:38;;;;;;;15.00;5.40;;;;;;;;;;6109912;23;20018;-72
2022/10/13 04:07:05;;;;;;;12.55;5.15;;;;;;;;;;6110467;23;20006;-73
2022/10/13 04:09:31;;;;;;;10.30;5.70;;;;;;;;;;6109838;23;20001;-74
2022/10/13 04:11:57;;;;;;;15.02;6.18;;;;;;;;;;6110231;23;20012;-73
2022/10/13 04:14:23;;;;;;;12.63;5.68;;;;;;;;;;6108060;23;20010;-72
2022/10/13 04:16:49;;;;;;;12.85;5.65;;;;;;;;;;6110616;23;20012;-73
2022/10/13 04:19:16;;;;;;;17.55;5.90;;;;;;;;;;6110433;23;20378;-75
2022/10/13 04:21:43;;;;;;;17.63;5.28;;;;;;;;;;6109505;23;20017;-74
2022/10/13 04:24:11;;;;;;;17.45;5.82;;;;;;;;;;6108130;23;20022;-73
2022/10/13 04:26:37;;;;;;;9.27;4.80;;;;;;;;;;6107611;23;19994;-73
2022/10/13 04:29:04;;;;;;;16.42;6.30;;;;;;;;;;6110164;23;20013;-72
2022/10/13 04:31:31;;;;;;;13.50;5.18;;;;;;;;;;6110427;23;20006;-74
2022/10/13 04:33:57;;;;;;;10.65;5.13;;;;;;;;;;6107967;23;20006;-72
2022/10/13 04:36:24;;;;;;;10.98;5.55;;;;;;;;;;6109894;23;20061;-72
2022/10/13 04:38:50;;;;;;;15.55;5.43;;;;;;;;;;6110509;23;20003;-74
2022/10/13 04:41:18;;;;;;;10.77;5.63;;;;;;;;;;6107797;23;20085;-73
2022/10/13 04:43:47;;;;;;;12.65;5.85;;;;;;;;;;6109170;23;20017;-72
2022/10/13 04:46:14;;;;;;;13.73;5.88;;;;;;;;;;6110175;23;20458;-73
2022/10/13 04:48:40;;;;;;;13.23;5.38;;;;;;;;;;6108151;23;20005;-73
2022/10/13 04:51:08;;;;;;;17.98;5.53;;;;;;;;;;6110734;23;20008;-72
2022/10/13 04:53:34;;;;;;;11.93;5.18;;;;;;;;;;6110047;23;20089;-73
2022/10/13 04:56:01;;;;;;;11.13;5.93;;;;;;;;;;6109997;23;20029;-73
2022/10/13 04:58:27;;;;;;;11.90;6.10;;;;;;;;;;6109708;23;20726;-73
2022/10/13 05:00:53;;;;;;;11.43;5.78;;;;;;;;;;6107988;23;20029;-73
2022/10/13 05:03:20;;;;;;;16.10;6.10;;;;;;;;;;6109936;23;20016;-73
2022/10/13 05:05:46;;;;;;;14.88;5.93;;;;;;;;;;6084715;23;20816;-74
2022/10/13 05:08:12;;;;;;;14.02;5.78;;;;;;;;;;6084124;23;20017;-73
2022/10/13 05:10:39;;;;;;;15.32;6.78;;;;;;;;;;6109731;23;20036;-73
2022/10/13 05:13:05;;;;;;;13.68;6.45;;;;;;;;;;6109332;23;20068;-74
2022/10/13 05:15:31;;;;;;;14.02;5.78;;;;;;;;;;6108541;23;20009;-73
2022/10/13 05:17:58;;;;;;;9.27;5.90;;;;;;;;;;6110076;23;20050;-72
2022/10/13 05:20:25;;;;;;;14.65;6.55;;;;;;;;;;6110178;23;20012;-72
2022/10/13 05:22:51;;;;;;;14.85;6.10;;;;;;;;;;6086011;23;20338;-72
2022/10/13 05:25:17;;;;;;;12.55;6.22;;;;;;;;;;6108705;23;20663;-74
2022/10/13 05:27:45;;;;;;;10.40;6.60;;;;;;;;;;6111620;23;20093;-73
2022/10/13 05:30:11;;;;;;;10.15;6.15;;;;;;;;;;6114081;23;20002;-74
2022/10/13 05:32:38;;;;;;;11.80;7.00;;;;;;;;;;6114255;23;20394;-76
2022/10/13 05:35:04;;;;;;;12.57;7.40;;;;;;;;;;6088123;23;20435;-73
2022/10/13 05:37:30;;;;;;;11.75;6.25;;;;;;;;;;6111018;23;20083;-73
2022/10/13 05:39:56;;;;;;;14.65;6.70;;;;;;;;;;6111233;23;20002;-75
2022/10/13 05:42:22;;;;;;;18.20;6.68;;;;;;;;;;6109805;23;20773;-73
2022/10/13 05:44:49;;;;;;;13.50;6.55;;;;;;;;;;6111722;23;20038;-72
2022/10/13 05:47:15;;;;;;;11.32;6.40;;;;;;;;;;6111259;23;20002;-73
2022/10/13 05:49:41;;;;;;;12.32;6.40;;;;;;;;;;6108793;23;20006;-72
2022/10/13 05:52:12;;;;;;;11.00;7.00;;;;;;;;;;6111530;23;20474;-73
2022/10/13 05:54:41;;;;;;;12.07;6.50;;;;;;;;;;6111627;23;20090;-73
2022/10/13 05:57:18;;;;;;;13.95;6.70;;;;;;;;;;6111444;23;20024;-72
2022/10/13 05:59:48;;;;;;;11.30;6.82;;;;;;;;;;6110916;23;20070;-72
2022/10/13 06:02:15;;;;;;;19.00;6.75;;;;;;;;;;6109793;23;20002;-73
2022/10/13 06:04:44;;;;;;;11.60;6.93;;;;;;;;;;6111093;23;20152;-72
2022/10/13 06:07:11;;;;;;;12.50;6.78;;;;;;;;;;6111854;23;20012;-73
2022/10/13 06:09:38;;;;;;;10.77;6.22;;;;;;;;;;6112031;23;20009;-72
2022/10/13 06:12:05;;;;;;;10.82;6.32;;;;;;;;;;6111154;23;20463;-72
2022/10/13 06:14:31;;;;;;;14.40;6.55;;;;;;;;;;6111807;23;20013;-73
2022/10/13 06:16:57;;;;;;;9.45;6.18;;;;;;;;;;6109375;23;20458;-74
2022/10/13 06:19:23;;;;;;;17.83;6.40;;;;;;;;;;6111278;23;20043;-74
2022/10/13 06:21:49;;;;;;;11.68;6.15;;;;;;;;;;6111105;23;20170;-74
2022/10/13 06:24:15;;;;;;;8.25;6.18;;;;;;;;;;6110388;23;20018;-73
2022/10/13 06:26:42;;;;;;;10.75;6.07;;;;;;;;;;6109687;23;20149;-73
2022/10/13 06:29:08;;;;;;;12.70;5.95;;;;;;;;;;6111581;23;20045;-73
2022/10/13 06:31:34;;;;;;;12.32;6.18;;;;;;;;;;6110600;23;20030;-74
2022/10/13 06:34:00;;;;;;;8.52;5.90;;;;;;;;;;6080928;23;20010;-73
2022/10/13 06:36:27;;;;;;;13.23;6.13;;;;;;;;;;6081717;23;20033;-73
2022/10/13 06:38:53;;;;;;;9.63;5.82;;;;;;;;;;6082273;23;20013;-72
2022/10/13 06:41:19;;;;;;;13.85;6.22;;;;;;;;;;6085024;23;20013;-73
2022/10/13 06:43:45;;;;;;;11.77;6.45;;;;;;;;;;6110201;23;20030;-75
2022/10/13 06:46:12;;;;;;;16.63;6.40;;;;;;;;;;6110937;23;20006;-74
2022/10/13 06:48:38;;;;;;;14.52;5.80;;;;;;;;;;6084204;23;20032;-74
2022/10/13 06:51:05;;;;;;;10.38;6.13;;;;;;;;;;6111246;23;20010;-76
2022/10/13 06:53:31;;;;;;;12.30;6.25;;;;;;;;;;6111422;23;20006;-82
2022/10/13 06:55:58;;;;;;;12.85;6.22;;;;;;;;;;6112082;23;20014;-74
2022/10/13 06:58:24;;;;;;;13.20;6.75;;;;;;;;;;6111532;23;20002;-75
2022/10/13 07:00:50;;;;;;;13.05;5.90;;;;;;;;;;6112776;23;20029;-74
2022/10/13 07:03:17;;;;;;;12.70;6.00;;;;;;;;;;6113261;23;20077;-74
2022/10/13 07:05:43;;;;;;;11.85;6.68;;;;;;;;;;6113159;23;20041;-74
2022/10/13 07:08:09;;;;;;;19.60;6.57;;;;;;;;;;6111785;23;20510;-74
2022/10/13 07:10:40;;;;;;;11.55;6.25;;;;;;;;;;6113023;23;20052;-73
2022/10/13 07:13:06;;;;;;;14.80;6.25;;;;;;;;;;6113533;23;19999;-73
2022/10/13 07:15:32;;;;;;;21.95;6.78;;;;;;;;;;6112882;23;20318;-74
2022/10/13 07:18:01;;;;;;;16.10;6.32;;;;;;;;;;6115197;23;20042;-76
2022/10/13 07:20:27;;;;;;;14.75;6.32;;;;;;;;;;6115484;23;20028;-77
2022/10/13 07:22:53;;;;;;;17.88;7.13;;;;;;;;;;6111029;23;20081;-75
2022/10/13 07:25:20;;;;;;;13.68;6.30;;;;;;;;;;6111564;23;20024;-76
2022/10/13 07:27:46;;;;;;;13.57;6.43;;;;;;;;;;6111483;23;20420;-74
2022/10/13 07:30:12;;;;;;;16.45;6.00;;;;;;;;;;6111689;23;20396;-75
2022/10/13 07:32:41;;;;;;;15.50;6.72;;;;;;;;;;6111108;23;20458;-76
2022/10/13 07:35:07;;;;;;;13.65;5.90;;;;;;;;;;6112370;23;20010;-75
2022/10/13 07:37:33;;;;;;;13.75;6.38;;;;;;;;;;6112260;23;20028;-78
2022/10/13 07:40:00;;;;;;;20.88;6.57;;;;;;;;;;6108748;23;20010;-74
2022/10/13 07:42:26;;;;;;;11.18;6.50;;;;;;;;;;6109826;23;20064;-76
2022/10/13 07:44:52;;;;;;;11.65;5.80;;;;;;;;;;6111450;23;20006;-74
2022/10/13 07:47:18;;;;;;;10.68;6.93;;;;;;;;;;6111929;23;20013;-75
2022/10/13 07:49:45;;;;;;;12.57;6.03;;;;;;;;;;6112710;23;19998;-75
2022/10/13 07:52:11;;;;;;;17.33;3.45;;;;;;;;;;6113322;23;20351;-76
2022/10/13 07:54:37;;;;;;;21.20;4.57;;;;;;;;;;6110107;23;20323;-73
2022/10/13 07:57:04;;;;;;;14.95;3.47;;;;;;;;;;6109803;23;20046;-76
2022/10/13 07:59:34;;;;;;;20.42;4.70;;;;;;;;;;6109314;23;20001;-76
2022/10/13 08:02:00;;;;;;;23.17;4.47;;;;;;;;;;6113527;23;20493;-74
2022/10/13 08:04:30;;;;;;;11.27;2.90;;;;;;;;;;6110675;23;20023;-75
2022/10/13 08:06:57;;;;;;;11.77;2.30;;;;;;;;;;6110656;23;20506;-75
2022/10/13 08:09:24;;;;;;;13.30;2.80;;;;;;;;;;6112820;23;20006;-75
2022/10/13 08:11:50;;;;;;;10.85;2.70;;;;;;;;;;6086376;23;20060;-78
2022/10/13 08:14:16;;;;;;;7.75;1.85;;;;;;;;;;6108960;23;20029;-76
2022/10/13 08:16:44;;;;;;;4.20;1.58;;;;;;;;;;6110083;23;20010;-77
2022/10/13 08:19:13;;;;;;;3.65;1.00;;;;;;;;;;6109064;23;20326;-75
2022/10/13 08:21:39;;;;;;;4.22;1.17;;;;;;;;;;6109051;23;20005;-75
2022/10/13 08:24:06;;;;;;;4.78;1.55;;;;;;;;;;6107037;23;20014;-74
2022/10/13 08:26:32;;;;;;;5.72;1.30;;;;;;;;;;6109158;23;20006;-75
2022/10/13 08:28:58;;;;;;;3.58;1.20;;;;;;;;;;6109002;23;20010;-74
2022/10/13 08:31:25;;;;;;;18.27;3.97;;;;;;;;;;6110195;23;20036;-76
2022/10/13 08:33:51;;;;;;;15.35;3.28;;;;;;;;;;6109097;23;20088;-75
2022/10/13 08:36:18;;;;;;;9.55;2.90;;;;;;;;;;6107104;23;20081;-74
2022/10/13 08:38:44;;;;;;;15.30;3.60;;;;;;;;;;6107265;23;20005;-75
2022/10/13 08:41:18;;;;;;;13.65;4.18;;;;;;;;;;6108875;23;20119;-75
2022/10/13 08:43:48;;;;;;;12.02;3.63;;;;;;;;;;6109106;23;20526;-75
2022/10/13 08:46:39;;;;;;;13.27;3.63;;;;;;;;;;6110019;23;20090;-76
2022/10/13 08:49:05;;;;;;;10.57;3.60;;;;;;;;;;6107145;23;20111;-75
2022/10/13 08:51:31;;;;;;;10.98;3.15;;;;;;;;;;6084083;23;20265;-74
2022/10/13 08:53:58;;;;;;;13.40;3.20;;;;;;;;;;6108434;23;20076;-74
2022/10/13 08:56:26;;;;;;;12.07;3.47;;;;;;;;;;6097490;23;20101;-74
2022/10/13 08:58:55;;;;;;;8.57;3.30;;;;;;;;;;6110898;23;20014;-74
2022/10/13 09:01:23;;;;;;;9.15;3.33;;;;;;;;;;6109579;23;20008;-75
2022/10/13 09:03:49;;;;;;;12.60;2.88;;;;;;;;;;6109142;23;20535;-75
2022/10/13 09:06:15;;;;;;;11.82;3.53;;;;;;;;;;6111604;23;20029;-76
2022/10/13 09:08:51;;;;;;;11.35;3.03;;;;;;;;;;6111133;23;20133;-77
2022/10/13 09:11:18;;;;;;;10.00;3.00;;;;;;;;;;6111291;23;20002;-77
2022/10/13 09:13:44;;;;;;;9.60;2.97;;;;;;;;;;6109879;23;20006;-75
2022/10/13 09:16:10;;;;;;;10.98;3.90;;;;;;;;;;6108922;23;20421;-74
2022/10/13 09:18:37;;;;;;;13.63;3.15;;;;;;;;;;6111081;23;20123;-75
2022/10/13 09:21:15;;;;;;;10.18;3.20;;;;;;;;;;6111228;23;20471;-75
2022/10/13 09:23:41;;;;;;;9.88;3.90;;;;;;;;;;6111211;23;20017;-75
2022/10/13 09:26:08;;;;;;;13.20;3.60;;;;;;;;;;6109146;23;20010;-75
2022/10/13 09:28:35;;;;;;;16.50;3.92;;;;;;;;;;6110407;23;20709;-74
2022/10/13 09:31:04;;;;;;;10.10;3.20;;;;;;;;;;6111068;23;20151;-74
2022/10/13 09:33:33;;;;;;;11.48;3.58;;;;;;;;;;6110320;23;20009;-75
2022/10/13 09:35:59;;;;;;;15.02;3.90;;;;;;;;;;6110622;23;19998;-74
2022/10/13 09:38:26;;;;;;;12.63;4.50;;;;;;;;;;6111572;23;20010;-75
2022/10/13 09:41:02;;;;;;;8.73;3.67;;;;;;;;;;6114120;23;20013;-76
2022/10/13 09:43:30;;;;;;;11.73;3.65;;;;;;;;;;6113586;23;20014;-75
2022/10/13 09:45:57;;;;;;;25.15;8.73;;;;;;;;;;6113030;23;20014;-75
2022/10/13 09:48:25;;;;;;;26.35;11.55;;;;;;;;;;6111198;23;20005;-76
2022/10/13 09:50:55;;;;;;;24.80;11.18;;;;;;;;;;6113050;23;20799;-74
2022/10/13 09:53:22;;;;;;;27.45;9.77;;;;;;;;;;6112130;23;20394;-74
2022/10/13 09:55:48;;;;;;;26.20;9.30;;;;;;;;;;6112732;23;20009;-76
2022/10/13 09:58:20;;;;;;;30.02;11.93;;;;;;;;;;6113171;23;20033;-76
2022/10/13 10:00:48;;;;;;;34.47;12.02;;;;;;;;;;6113081;23;20600;-75
2022/10/13 10:03:27;;;;;;;17.65;7.18;;;;;;;;;;6112059;23;20006;-75
2022/10/13 10:05:55;;;;;;;13.50;6.28;;;;;;;;;;6112955;23;20080;-75
2022/10/13 10:08:27;;;;;;;14.18;6.55;;;;;;;;;;6087091;23;20014;-77
2022/10/13 10:10:56;;;;;;;17.83;7.32;;;;;;;;;;6112579;23;20332;-77
2022/10/13 10:13:26;;;;;;;15.90;6.32;;;;;;;;;;6087156;23;20030;-76
2022/10/13 10:15:58;;;;;;;16.80;7.05;;;;;;;;;;6111557;23;20031;-76
2022/10/13 10:18:38;;;;;;;13.07;5.75;;;;;;;;;;6113206;23;20551;-76
2022/10/13 10:21:08;;;;;;;14.45;6.18;;;;;;;;;;6094365;23;20013;-76
2022/10/13 10:23:49;;;;;;;14.13;5.70;;;;;;;;;;6113229;23;20010;-76
2022/10/13 10:26:15;;;;;;;14.67;6.13;;;;;;;;;;6111650;23;20002;-76
2022/10/13 10:28:41;;;;;;;8.32;4.40;;;;;;;;;;6086007;23;20010;-76
2022/10/13 10:31:14;;;;;;;11.73;4.72;;;;;;;;;;6113181;23;20032;-76
2022/10/13 10:33:40;;;;;;;12.88;4.80;;;;;;;;;;6112520;23;20090;-77
2022/10/13 10:36:18;;;;;;;8.05;3.75;;;;;;;;;;6112053;23;20450;-78
2022/10/13 10:38:47;;;;;;;13.40;4.60;;;;;;;;;;6112616;23;20010;-78
2022/10/13 10:41:32;;;;;;;12.55;4.63;;;;;;;;;;6111264;23;20246;-76
2022/10/13 10:44:09;;;;;;;10.60;4.38;;;;;;;;;;6112566;23;20643;-76
2022/10/13 10:46:38;;;;;;;7.30;4.15;;;;;;;;;;6113242;23;20006;-76
2022/10/13 10:49:13;;;;;;;9.40;4.43;;;;;;;;;;6086874;23;20006;-76
2022/10/13 10:51:39;;;;;;;13.73;4.38;;;;;;;;;;6110117;23;20133;-76
2022/10/13 10:54:28;;;;;;;10.73;3.95;;;;;;;;;;6111067;23;20107;-76
2022/10/13 10:56:58;;;;;;;7.63;4.32;;;;;;;;;;6110674;23;20025;-76
2022/10/13 10:59:42;;;;;;;12.05;4.72;;;;;;;;;;6111840;23;20088;-76
2022/10/13 11:02:27;;;;;;;12.07;4.68;;;;;;;;;;6110372;23;20010;-77
2022/10/13 11:04:53;;;;;;;12.80;6.13;;;;;;;;;;6085863;23;20022;-76
2022/10/13 11:07:22;;;;;;;12.73;6.03;;;;;;;;;;6113293;23;20002;-75
2022/10/13 11:09:51;;;;;;;11.23;6.10;;;;;;;;;;6112845;23;20391;-76
2022/10/13 11:12:20;;;;;;;13.88;6.22;;;;;;;;;;6111288;23;20013;-76
2022/10/13 11:14:46;;;;;;;18.42;6.88;;;;;;;;;;6113151;23;20002;-75
2022/10/13 11:17:17;;;;;;;14.65;6.25;;;;;;;;;;6112787;23;20327;-76
2022/10/13 11:19:44;;;;;;;14.67;7.17;;;;;;;;;;6086811;23;20006;-76
2022/10/13 11:22:15;;;;;;;14.80;7.25;;;;;;;;;;6112753;23;20608;-75
2022/10/13 11:24:41;;;;;;;12.05;6.43;;;;;;;;;;6110663;23;20438;-76
2022/10/13 11:27:10;;;;;;;12.35;6.22;;;;;;;;;;6087128;23;20008;-76
2022/10/13 11:29:46;;;;;;;13.75;6.75;;;;;;;;;;6112293;23;20010;-76
2022/10/13 11:32:30;;;;;;;13.75;6.82;;;;;;;;;;6113409;23;20009;-77
2022/10/13 11:35:05;;;;;;;13.18;6.20;;;;;;;;;;6110582;23;20036;-75
2022/10/13 11:37:43;;;;;;;15.27;6.28;;;;;;;;;;6081224;23;20116;-76
2022/10/13 11:40:09;;;;;;;11.68;6.13;;;;;;;;;;6111712;23;20013;-76
2022/10/13 11:42:42;;;;;;;11.55;5.63;;;;;;;;;;6112812;23;20002;-76
2022/10/13 11:45:17;;;;;;;9.00;5.35;;;;;;;;;;6112205;23;20010;-76
2022/10/13 11:47:55;;;;;;;11.18;5.45;;;;;;;;;;6113374;23;20005;-75
2022/10/13 11:50:36;;;;;;;15.27;5.10;;;;;;;;;;6110919;23;20025;-76
2022/10/13 11:53:12;;;;;;;10.32;4.60;;;;;;;;;;6112864;23;20006;-76
2022/10/13 11:55:49;;;;;;;15.43;5.65;;;;;;;;;;6112002;23;20014;-77
2022/10/13 11:58:18;;;;;;;12.73;6.18;;;;;;;;;;6110282;23;20741;-75
2022/10/13 12:00:50;;;;;;;17.10;5.97;;;;;;;;;;6112231;23;20416;-75
2022/10/13 12:03:36;;;;;;;13.75;5.80;;;;;;;;;;6112646;23;20064;-75
2022/10/13 12:06:07;;;;;;;13.63;6.45;;;;;;;;;;6084209;23;20028;-76
2022/10/13 12:08:34;;;;;;;16.67;6.15;;;;;;;;;;6112158;23;20002;-76
2022/10/13 12:11:04;;;;;;;8.65;5.38;;;;;;;;;;6086628;23;20121;-76
2022/10/13 12:13:31;;;;;;;11.40;5.22;;;;;;;;;;6112037;23;20024;-75
2022/10/13 12:15:59;;;;;;;13.98;5.88;;;;;;;;;;6110149;23;20072;-75
2022/10/13 12:18:27;;;;;;;11.63;5.68;;;;;;;;;;6112774;23;20026;-75
2022/10/13 12:20:53;;;;;;;6.72;5.22;;;;;;;;;;6110744;23;20010;-76
2022/10/13 12:23:20;;;;;;;14.88;5.65;;;;;;;;;;6085669;23;20757;-75
2022/10/13 12:25:47;;;;;;;14.20;5.97;;;;;;;;;;6110401;23;20277;-74
2022/10/13 12:28:18;;;;;;;18.42;6.10;;;;;;;;;;6111968;23;20583;-75
2022/10/13 12:30:50;;;;;;;11.90;5.40;;;;;;;;;;6111441;23;20425;-76
2022/10/13 12:33:25;;;;;;;18.42;6.03;;;;;;;;;;6111434;23;20595;-75
2022/10/13 12:35:51;;;;;;;21.00;6.28;;;;;;;;;;6109558;23;20064;-76
2022/10/13 12:38:19;;;;;;;13.95;5.53;;;;;;;;;;6112060;23;20010;-75
2022/10/13 12:40:46;;;;;;;14.57;5.18;;;;;;;;;;6111645;23;19998;-76
2022/10/13 12:43:18;;;;;;;18.20;4.85;;;;;;;;;;6112415;23;20056;-75
2022/10/13 12:45:44;;;;;;;11.65;5.05;;;;;;;;;;6111271;23;20009;-76
2022/10/13 12:48:29;;;;;;;13.05;4.68;;;;;;;;;;6112995;23;20030;-77
2022/10/13 12:50:55;;;;;;;14.90;4.40;;;;;;;;;;6110626;23;20002;-76
2022/10/13 12:53:26;;;;;;;13.05;3.97;;;;;;;;;;6085738;23;20443;-78
2022/10/13 12:55:57;;;;;;;16.52;4.32;;;;;;;;;;6111479;23;20014;-78
2022/10/13 12:58:23;;;;;;;;;;;;;;;;;;6110840;23;20013;-77
2022/10/13 13:01:08;;;;;;;13.25;4.22;;;;;;;;;;6085626;23;19901;-77
2022/10/13 13:03:36;;;;;;;14.75;4.20;;;;;;;;;;6111872;23;20017;-76
2022/10/13 13:06:14;;;;;;;11.52;3.30;;;;;;;;;;6111376;23;20014;-75
2022/10/13 13:08:43;;;;;;;15.20;3.85;;;;;;;;;;6113679;23;20037;-77
2022/10/13 13:11:23;;;;;;;15.23;3.15;;;;;;;;;;6117150;23;20416;-78
2022/10/13 13:13:49;;;;;;;12.40;3.75;;;;;;;;;;6113565;23;20747;-75
2022/10/13 13:16:20;;;;;;;12.65;3.38;;;;;;;;;;6085936;23;20006;-77
2022/10/13 13:18:48;;;;;;;11.87;3.50;;;;;;;;;;6110389;23;20013;-78
2022/10/13 13:21:15;;;;;;;10.77;3.38;;;;;;;;;;6111332;23;20216;-74
2022/10/13 13:23:42;;;;;;;11.93;3.40;;;;;;;;;;6111455;23;20009;-74
2022/10/13 13:26:13;;;;;;;16.33;3.92;;;;;;;;;;6110124;23;20101;-74
2022/10/13 13:28:57;;;;;;;15.43;3.85;;;;;;;;;;6112615;23;20006;-74
2022/10/13 13:31:24;;;;;;;14.82;3.50;;;;;;;;;;6111780;23;20006;-74
2022/10/13 13:33:50;;;;;;;12.98;3.30;;;;;;;;;;6111861;23;20006;-75
2022/10/13 13:36:18;;;;;;;13.82;3.35;;;;;;;;;;6085278;23;20025;-74
2022/10/13 13:38:44;;;;;;;14.50;3.58;;;;;;;;;;6084316;23;20439;-74
2022/10/13 13:41:11;;;;;;;10.23;2.92;;;;;;;;;;6112269;23;20002;-74
2022/10/13 13:43:38;;;;;;;19.20;3.97;;;;;;;;;;6113134;23;20068;-75
2022/10/13 13:46:04;;;;;;;17.15;3.63;;;;;;;;;;6111520;23;20068;-74
2022/10/13 13:48:30;;;;;;;12.45;3.60;;;;;;;;;;6088252;23;20002;-74
2022/10/13 13:50:57;;;;;;;13.05;3.83;;;;;;;;;;6113877;23;20009;-74
2022/10/13 13:53:23;;;;;;;17.13;3.70;;;;;;;;;;6114122;23;20002;-74
2022/10/13 13:55:49;;;;;;;14.82;3.45;;;;;;;;;;6112644;23;20022;-74
2022/10/13 13:58:15;;;;;;;9.45;3.20;;;;;;;;;;6111607;23;20006;-74
2022/10/13 14:00:41;;;;;;;14.75;3.58;;;;;;;;;;6113588;23;20002;-74
2022/10/13 14:03:07;;;;;;;9.60;2.90;;;;;;;;;;6113545;23;19998;-75
2022/10/13 14:05:37;;;;;;;13.00;3.40;;;;;;;;;;6113393;23;20101;-75
2022/10/13 14:08:03;;;;;;;11.75;3.28;;;;;;;;;;6085589;23;20013;-74
2022/10/13 14:10:30;;;;;;;12.20;3.60;;;;;;;;;;6113520;23;20005;-74
2022/10/13 14:12:56;;;;;;;17.58;3.45;;;;;;;;;;6113507;23;20559;-74
2022/10/13 14:15:22;;;;;;;10.70;3.15;;;;;;;;;;6112565;23;20013;-74
2022/10/13 14:17:51;;;;;;;11.82;3.40;;;;;;;;;;6113395;23;20599;-74
2022/10/13 14:20:17;;;;;;;16.92;6.20;;;;;;;;;;6111864;23;20013;-74
2022/10/13 14:22:43;;;;;;;12.38;3.15;;;;;;;;;;6114131;23;20002;-74
2022/10/13 14:25:10;;;;;;;13.45;3.90;;;;;;;;;;6113112;23;20069;-74
2022/10/13 14:27:36;;;;;;;14.23;4.80;;;;;;;;;;6113586;23;20053;-74
2022/10/13 14:30:06;;;;;;;12.52;3.30;;;;;;;;;;6111401;23;20006;-74
2022/10/13 14:32:32;;;;;;;6.68;2.85;;;;;;;;;;6113090;23;19998;-74
2022/10/13 14:34:58;;;;;;;13.70;3.38;;;;;;;;;;6087156;23;20010;-74
2022/10/13 14:37:25;;;;;;;16.05;3.38;;;;;;;;;;6113473;23;20002;-74
2022/10/13 14:39:51;;;;;;;14.48;4.03;;;;;;;;;;6111174;23;20012;-75